createdAt,value
2023-04-11T00:01:49.992Z,47.00
2023-04-11T00:04:21.072Z,47.20
2023-04-11T00:06:49.623Z,47.00
2023-04-11T00:09:19.266Z,47.00
2023-04-11T00:11:48.144Z,47.30
2023-04-11T00:14:17.783Z,47.30
2023-04-11T00:16:46.165Z,47.20
2023-04-11T00:19:15.342Z,47.30
2023-04-11T00:21:44.310Z,47.30
2023-04-11T00:24:12.620Z,47.30
2023-04-11T00:26:42.354Z,47.30
2023-04-11T00:29:10.848Z,47.40
2023-04-11T00:31:38.979Z,47.40
2023-04-11T00:34:07.376Z,47.60
2023-04-11T00:36:35.611Z,47.80
2023-04-11T00:39:03.912Z,47.90
2023-04-11T00:41:32.057Z,47.90
2023-04-11T00:44:01.665Z,48.20
2023-04-11T00:46:30.223Z,48.40
2023-04-11T00:48:58.545Z,48.80
2023-04-11T00:51:28.625Z,48.70
2023-04-11T00:53:56.742Z,49.00
2023-04-11T00:56:25.033Z,49.10
2023-04-11T00:58:53.486Z,49.50
2023-04-11T01:01:25.199Z,49.70
2023-04-11T01:03:53.873Z,49.70
2023-04-11T01:06:23.798Z,49.80
2023-04-11T01:08:51.949Z,50.00
2023-04-11T01:11:20.796Z,50.10
2023-04-11T01:13:50.954Z,50.20
2023-04-11T01:16:21.455Z,50.60
2023-04-11T01:18:51.783Z,50.60
2023-04-11T01:21:20.847Z,50.70
2023-04-11T01:23:52.728Z,51.00
2023-04-11T01:26:21.174Z,51.90
2023-04-11T01:28:49.355Z,51.90
2023-04-11T01:31:17.589Z,52.50
2023-04-11T01:33:45.971Z,53.60
2023-04-11T01:36:14.473Z,54.60
2023-04-11T01:38:42.804Z,55.60
2023-04-11T01:41:12.500Z,56.80
2023-04-11T01:43:41.080Z,57.50
2023-04-11T01:46:09.889Z,58.70
2023-04-11T01:48:38.748Z,60.60
2023-04-11T01:51:08.422Z,61.20
2023-04-11T01:53:36.565Z,61.80
2023-04-11T01:56:04.894Z,62.60
2023-04-11T01:58:34.514Z,63.10
2023-04-11T02:01:02.853Z,63.20
2023-04-11T02:03:31.282Z,65.70
2023-04-11T02:05:59.528Z,65.00
2023-04-11T02:08:27.633Z,65.30
2023-04-11T02:10:55.818Z,65.70
2023-04-11T02:13:23.966Z,65.60
2023-04-11T02:15:53.518Z,66.30
2023-04-11T02:18:21.741Z,66.60
2023-04-11T02:20:50.239Z,66.50
2023-04-11T02:23:18.365Z,67.00
2023-04-11T02:25:46.532Z,67.50
2023-04-11T02:28:14.662Z,67.90
2023-04-11T02:30:42.854Z,68.10
2023-04-11T02:33:12.472Z,68.70
2023-04-11T02:35:40.608Z,68.60
2023-04-11T02:38:08.756Z,68.80
2023-04-11T02:40:36.859Z,68.90
2023-04-11T02:43:05.071Z,69.00
2023-04-11T02:45:33.461Z,69.20
2023-04-11T02:48:01.624Z,69.00
2023-04-11T02:50:31.701Z,69.20
2023-04-11T02:52:59.876Z,69.00
2023-04-11T02:55:28.178Z,69.00
2023-04-11T02:57:56.294Z,69.20
2023-04-11T03:00:24.872Z,69.00
2023-04-11T03:02:53.456Z,68.80
2023-04-11T03:05:21.718Z,68.90
2023-04-11T03:07:51.230Z,68.70
2023-04-11T03:10:19.541Z,68.50
2023-04-11T03:12:47.761Z,68.50
2023-04-11T03:15:17.731Z,68.40
2023-04-11T03:17:45.904Z,68.30
2023-04-11T03:20:19.936Z,68.50
2023-04-11T03:22:48.574Z,68.20
2023-04-11T03:25:18.141Z,68.40
2023-04-11T03:27:46.281Z,68.00
2023-04-11T03:30:15.623Z,68.40
2023-04-11T03:32:43.764Z,68.20
2023-04-11T03:35:11.942Z,68.10
2023-04-11T03:37:40.082Z,68.00
2023-04-11T03:40:09.954Z,67.90
2023-04-11T03:42:39.580Z,67.70
2023-04-11T03:45:09.414Z,67.40
2023-04-11T03:47:37.597Z,67.20
2023-04-11T03:50:06.645Z,67.20
2023-04-11T03:52:34.854Z,66.90
2023-04-11T03:55:03.483Z,66.40
2023-04-11T03:57:32.366Z,66.30
2023-04-11T04:00:02.144Z,66.00
2023-04-11T04:02:30.362Z,65.90
2023-04-11T04:04:59.366Z,65.90
2023-04-11T04:07:28.030Z,65.90
2023-04-11T04:09:56.176Z,65.70
2023-04-11T04:12:24.565Z,65.70
2023-04-11T04:14:53.715Z,65.20
2023-04-11T04:17:23.491Z,65.20
2023-04-11T04:19:51.837Z,65.00
2023-04-11T04:22:19.984Z,65.10
2023-04-11T04:24:48.167Z,64.80
2023-04-11T04:27:18.197Z,64.60
2023-04-11T04:29:51.924Z,64.40
2023-04-11T04:32:28.894Z,64.40
2023-04-11T04:34:57.885Z,64.70
2023-04-11T04:37:27.391Z,64.60
2023-04-11T04:39:56.821Z,64.30
2023-04-11T04:42:27.189Z,64.50
2023-04-11T04:44:56.765Z,64.40
2023-04-11T04:47:31.387Z,64.70
2023-04-11T04:49:59.869Z,64.80
2023-04-11T04:52:29.057Z,64.80
2023-04-11T04:54:59.023Z,64.80
2023-04-11T04:57:27.327Z,65.00
2023-04-11T04:59:55.669Z,65.10
2023-04-11T05:02:26.914Z,64.80
2023-04-11T05:04:56.146Z,65.40
2023-04-11T05:07:24.303Z,65.80
2023-04-11T05:09:52.402Z,67.40
2023-04-11T05:12:26.320Z,69.20
2023-04-11T05:14:55.538Z,70.70
2023-04-11T05:17:25.602Z,71.70
2023-04-11T05:19:53.901Z,71.90
2023-04-11T05:22:22.082Z,72.20
2023-04-11T05:24:50.226Z,72.50
2023-04-11T05:27:18.844Z,72.30
2023-04-11T05:29:47.346Z,72.10
2023-04-11T05:32:15.473Z,72.30
2023-04-11T05:34:55.944Z,72.70
2023-04-11T05:37:26.429Z,72.80
2023-04-11T05:39:56.341Z,72.80
2023-04-11T05:42:24.562Z,73.10
2023-04-11T05:44:52.734Z,73.10
2023-04-11T05:47:20.906Z,73.20
2023-04-11T05:49:49.140Z,73.40
2023-04-11T05:52:18.631Z,73.30
2023-04-11T05:54:46.736Z,73.40
2023-04-11T05:57:14.855Z,73.30
2023-04-11T05:59:42.961Z,73.60
2023-04-11T06:02:11.771Z,73.70
2023-04-11T06:04:40.154Z,73.80
2023-04-11T06:07:08.625Z,73.70
2023-04-11T06:09:39.336Z,73.60
2023-04-11T06:12:07.921Z,73.60
2023-04-11T06:14:38.063Z,73.70
2023-04-11T06:17:07.730Z,73.60
2023-04-11T06:19:35.967Z,73.50
2023-04-11T06:22:04.134Z,73.50
2023-04-11T06:24:41.698Z,73.60
2023-04-11T06:27:10.927Z,73.80
2023-04-11T06:29:39.538Z,73.50
2023-04-11T06:32:08.448Z,73.40
2023-04-11T06:34:36.729Z,73.50
2023-04-11T06:37:04.902Z,73.50
2023-04-11T06:39:33.418Z,73.60
2023-04-11T06:42:03.308Z,74.10
2023-04-11T06:44:31.935Z,74.10
2023-04-11T06:47:00.162Z,74.40
2023-04-11T06:49:29.246Z,74.20
2023-04-11T06:51:57.365Z,74.20
2023-04-11T06:54:25.544Z,74.40
2023-04-11T06:56:53.922Z,74.50
2023-04-11T06:59:24.664Z,74.60
2023-04-11T07:01:53.028Z,74.40
2023-04-11T07:04:22.141Z,74.60
2023-04-11T07:06:50.565Z,74.40
2023-04-11T07:09:18.653Z,74.70
2023-04-11T07:11:46.788Z,74.80
2023-04-11T07:14:15.023Z,75.00
2023-04-11T07:16:44.570Z,75.10
2023-04-11T07:19:12.795Z,75.00
2023-04-11T07:21:41.120Z,75.00
2023-04-11T07:24:10.602Z,75.20
2023-04-11T07:26:39.025Z,75.30
2023-04-11T07:29:09.947Z,75.30
2023-04-11T07:31:39.370Z,75.40
2023-04-11T07:34:08.966Z,75.50
2023-04-11T07:36:37.115Z,75.50
2023-04-11T07:39:09.308Z,75.60
2023-04-11T07:41:37.753Z,75.80
2023-04-11T07:44:07.636Z,75.60
2023-04-11T07:46:35.858Z,75.70
2023-04-11T07:49:04.043Z,75.70
2023-04-11T07:51:33.637Z,75.80
2023-04-11T07:54:01.878Z,75.80
2023-04-11T07:56:30.040Z,75.80
2023-04-11T07:58:58.672Z,75.80
2023-04-11T08:01:27.385Z,75.80
2023-04-11T08:03:57.570Z,75.70
2023-04-11T08:06:26.622Z,75.40
2023-04-11T08:08:56.370Z,75.10
2023-04-11T08:11:24.548Z,74.70
2023-04-11T08:13:52.738Z,74.40
2023-04-11T08:16:21.135Z,74.00
2023-04-11T08:18:49.298Z,73.40
2023-04-11T08:21:17.702Z,72.90
2023-04-11T08:23:47.522Z,72.80
2023-04-11T08:26:17.178Z,72.40
2023-04-11T08:28:45.822Z,72.30
2023-04-11T08:31:14.175Z,72.10
2023-04-11T08:33:42.409Z,71.80
2023-04-11T08:36:11.561Z,71.70
2023-04-11T08:38:40.376Z,71.30
2023-04-11T08:41:08.951Z,71.00
2023-04-11T08:43:40.997Z,70.90
2023-04-11T08:46:10.034Z,70.70
2023-04-11T08:48:39.493Z,70.30
2023-04-11T08:51:08.463Z,69.80
2023-04-11T08:53:38.755Z,70.00
2023-04-11T08:56:07.341Z,69.20
2023-04-11T08:58:35.481Z,69.10
2023-04-11T09:01:32.153Z,69.00
2023-04-11T09:04:01.760Z,69.10
2023-04-11T09:06:30.969Z,68.50
2023-04-11T09:09:05.233Z,68.00
2023-04-11T09:11:52.540Z,68.50
2023-04-11T09:14:25.092Z,68.20
2023-04-11T09:16:58.617Z,67.30
2023-04-11T09:19:27.296Z,67.30
2023-04-11T09:21:58.185Z,67.00
2023-04-11T09:24:26.562Z,65.90
2023-04-11T09:27:08.795Z,65.10
2023-04-11T09:29:39.023Z,64.70
2023-04-11T09:32:08.788Z,64.70
2023-04-11T09:34:42.398Z,64.10
2023-04-11T09:37:10.739Z,63.30
2023-04-11T09:39:39.075Z,62.70
2023-04-11T09:42:25.393Z,62.30
2023-04-11T09:44:54.362Z,61.80
2023-04-11T09:47:23.892Z,61.70
2023-04-11T09:49:52.823Z,60.80
2023-04-11T09:52:21.813Z,61.20
2023-04-11T09:54:52.018Z,60.50
2023-04-11T09:57:23.006Z,60.00
2023-04-11T09:59:52.538Z,59.80
2023-04-11T10:02:20.908Z,58.60
2023-04-11T10:04:51.641Z,59.00
2023-04-11T10:07:20.523Z,58.30
2023-04-11T10:09:49.031Z,57.00
2023-04-11T10:12:32.510Z,57.80
2023-04-11T10:15:08.718Z,57.20
2023-04-11T10:17:37.818Z,57.40
2023-04-11T10:20:44.997Z,56.90
2023-04-11T10:23:13.760Z,56.70
2023-04-11T10:25:56.394Z,56.20
2023-04-11T10:28:35.827Z,56.10
2023-04-11T10:31:09.942Z,54.70
2023-04-11T10:33:39.745Z,55.20
2023-04-11T10:36:12.409Z,54.60
2023-04-11T10:38:51.534Z,54.70
2023-04-11T10:41:37.267Z,54.20
2023-04-11T10:44:18.281Z,53.40
2023-04-11T10:46:48.574Z,53.90
2023-04-11T10:49:35.460Z,53.40
2023-04-11T10:52:22.003Z,52.90
2023-04-11T10:54:51.730Z,52.50
2023-04-11T10:57:20.485Z,52.20
2023-04-11T11:00:01.717Z,51.80
2023-04-11T11:02:40.083Z,52.00
2023-04-11T11:05:22.287Z,52.10
2023-04-11T11:07:53.934Z,51.90
2023-04-11T11:10:38.463Z,52.30
2023-04-11T11:13:06.707Z,52.40
2023-04-11T11:15:37.761Z,52.20
2023-04-11T11:18:11.007Z,52.00
2023-04-11T11:20:40.764Z,52.00
2023-04-11T11:23:11.961Z,51.80
2023-04-11T11:25:40.117Z,50.50
2023-04-11T11:28:09.625Z,51.50
2023-04-11T11:30:38.547Z,51.40
2023-04-11T11:33:17.983Z,52.00
2023-04-11T11:35:51.705Z,51.70
2023-04-11T11:38:21.987Z,51.50
2023-04-11T11:40:50.756Z,51.10
2023-04-11T11:43:19.242Z,51.40
2023-04-11T11:45:47.623Z,51.00
2023-04-11T11:48:23.395Z,51.00
2023-04-11T11:50:57.671Z,51.20
2023-04-11T11:53:27.457Z,50.90
2023-04-11T11:55:56.846Z,51.40
2023-04-11T11:58:25.162Z,51.50
2023-04-11T12:00:53.922Z,51.00
2023-04-11T12:03:24.081Z,50.10
2023-04-11T12:05:53.813Z,50.70
2023-04-11T12:08:23.218Z,50.40
2023-04-11T12:10:52.739Z,49.80
2023-04-11T12:13:23.491Z,50.10
2023-04-11T12:15:54.015Z,50.50
2023-04-11T12:18:22.969Z,49.40
2023-04-11T12:20:51.288Z,49.40
2023-04-11T12:23:20.102Z,49.40
2023-04-11T12:25:48.696Z,48.70
2023-04-11T12:28:18.580Z,48.70
2023-04-11T12:30:46.696Z,48.70
2023-04-11T12:33:14.809Z,48.20
2023-04-11T12:35:42.945Z,47.60
2023-04-11T12:38:13.294Z,47.60
2023-04-11T12:40:44.613Z,47.00
2023-04-11T12:43:12.685Z,46.70
2023-04-11T12:45:42.275Z,46.60
2023-04-11T12:48:10.570Z,46.60
2023-04-11T12:50:38.802Z,46.20
2023-04-11T12:53:06.942Z,45.90
2023-04-11T12:55:35.152Z,45.50
2023-04-11T12:58:03.441Z,45.80
2023-04-11T13:00:31.800Z,45.40
2023-04-11T13:03:01.795Z,46.30
2023-04-11T13:05:30.104Z,46.40
2023-04-11T13:07:58.246Z,46.30
2023-04-11T13:10:26.355Z,46.20
2023-04-11T13:12:58.640Z,45.50
2023-04-11T13:15:28.826Z,45.40
2023-04-11T13:17:57.120Z,45.70
2023-04-11T13:20:26.674Z,45.20
2023-04-11T13:22:54.786Z,45.40
2023-04-11T13:25:22.950Z,45.10
2023-04-11T13:27:51.042Z,45.00
2023-04-11T13:30:19.202Z,45.70
2023-04-11T13:32:47.401Z,45.20
2023-04-11T13:35:15.517Z,44.90
2023-04-11T13:37:45.093Z,44.80
2023-04-11T13:40:13.721Z,44.80
2023-04-11T13:42:41.885Z,44.00
2023-04-11T13:45:10.982Z,44.30
2023-04-11T13:47:39.264Z,43.40
2023-04-11T13:50:09.399Z,44.10
2023-04-11T13:52:37.727Z,44.30
2023-04-11T13:55:08.012Z,44.30
2023-04-11T13:57:36.308Z,44.10
2023-04-11T14:00:11.207Z,43.60
2023-04-11T14:02:40.462Z,44.20
2023-04-11T14:05:10.342Z,44.10
2023-04-11T14:07:38.626Z,43.80
2023-04-11T14:10:09.360Z,43.60
2023-04-11T14:12:37.772Z,43.20
2023-04-11T14:15:07.877Z,42.10
2023-04-11T14:17:36.428Z,43.20
2023-04-11T14:20:06.965Z,43.30
2023-04-11T14:22:35.139Z,43.50
2023-04-11T14:25:03.250Z,43.80
2023-04-11T14:27:32.776Z,43.50
2023-04-11T14:30:00.951Z,42.60
2023-04-11T14:32:29.090Z,42.40
2023-04-11T14:34:57.260Z,42.10
2023-04-11T14:37:25.789Z,42.50
2023-04-11T14:39:53.911Z,41.60
2023-04-11T14:42:22.042Z,41.20
2023-04-11T14:44:52.871Z,40.60
2023-04-11T14:47:21.403Z,39.90
2023-04-11T14:49:49.644Z,39.70
2023-04-11T14:52:17.750Z,39.70
2023-04-11T14:54:46.083Z,39.20
2023-04-11T14:57:14.235Z,39.30
2023-04-11T14:59:42.835Z,39.20
2023-04-11T15:02:13.405Z,38.60
2023-04-11T15:04:41.784Z,38.40
2023-04-11T15:07:09.942Z,39.30
2023-04-11T15:09:38.123Z,39.50
2023-04-11T15:12:06.927Z,39.60
2023-04-11T15:14:35.101Z,39.00
2023-04-11T15:17:03.231Z,38.90
2023-04-11T15:19:32.758Z,38.60
2023-04-11T15:22:00.984Z,38.20
2023-04-11T15:24:29.080Z,38.30
2023-04-11T15:26:57.551Z,38.10
2023-04-11T15:29:25.972Z,37.20
2023-04-11T15:31:54.068Z,37.20
2023-04-11T15:34:23.380Z,37.40
2023-04-11T15:36:52.890Z,37.30
2023-04-11T15:39:21.034Z,37.10
2023-04-11T15:41:49.166Z,37.20
2023-04-11T15:44:17.315Z,36.90
2023-04-11T15:46:47.200Z,37.10
2023-04-11T15:49:17.157Z,36.50
2023-04-11T15:51:46.601Z,36.90
2023-04-11T15:54:16.130Z,36.50
2023-04-11T15:56:44.248Z,36.20
2023-04-11T15:59:13.072Z,35.70
2023-04-11T16:01:41.651Z,35.40
2023-04-11T16:04:11.407Z,34.80
2023-04-11T16:06:39.713Z,34.10
2023-04-11T16:09:08.735Z,32.70
2023-04-11T16:11:39.936Z,33.70
2023-04-11T16:14:08.143Z,33.70
2023-04-11T16:16:36.336Z,33.70
2023-04-11T16:19:04.503Z,34.40
2023-04-11T16:21:32.853Z,35.00
2023-04-11T16:24:00.972Z,35.20
2023-04-11T16:26:29.190Z,35.50
2023-04-11T16:28:58.739Z,35.90
2023-04-11T16:31:27.272Z,36.30
2023-04-11T16:33:56.162Z,36.90
2023-04-11T16:36:24.708Z,37.10
2023-04-11T16:38:52.832Z,37.40
2023-04-11T16:41:21.341Z,37.80
2023-04-11T16:43:49.591Z,37.90
2023-04-11T16:46:19.318Z,38.00
2023-04-11T16:48:47.477Z,38.30
2023-04-11T16:51:18.387Z,38.30
2023-04-11T16:53:47.481Z,38.80
2023-04-11T16:56:15.860Z,38.80
2023-04-11T16:58:44.109Z,39.00
2023-04-11T17:01:13.282Z,39.30
2023-04-11T17:03:43.833Z,39.60
2023-04-11T17:06:15.634Z,40.40
2023-04-11T17:08:45.523Z,40.00
2023-04-11T17:11:13.862Z,40.20
2023-04-11T17:13:45.270Z,40.60
2023-04-11T17:16:13.884Z,40.60
2023-04-11T17:18:43.650Z,40.80
2023-04-11T17:21:12.036Z,40.80
2023-04-11T17:23:43.473Z,40.90
2023-04-11T17:26:12.339Z,41.10
2023-04-11T17:28:40.832Z,41.40
2023-04-11T17:31:13.152Z,41.30
2023-04-11T17:33:41.524Z,41.50
2023-04-11T17:36:13.769Z,41.70
2023-04-11T17:38:43.766Z,41.70
2023-04-11T17:41:15.041Z,41.90
2023-04-11T17:43:44.139Z,42.00
2023-04-11T17:46:12.973Z,42.10
2023-04-11T17:48:42.104Z,42.40
2023-04-11T17:51:11.621Z,42.60
2023-04-11T17:53:39.753Z,42.60
2023-04-11T17:56:08.616Z,42.80
2023-04-11T17:58:37.225Z,42.90
2023-04-11T18:01:11.051Z,43.10
2023-04-11T18:03:40.257Z,43.30
2023-04-11T18:06:09.001Z,43.50
2023-04-11T18:08:50.488Z,43.70
2023-04-11T18:11:20.916Z,44.00
2023-04-11T18:13:50.554Z,44.30
2023-04-11T18:16:19.310Z,44.70
2023-04-11T18:18:48.317Z,45.00
2023-04-11T18:21:17.130Z,45.50
2023-04-11T18:23:46.762Z,45.70
2023-04-11T18:26:14.960Z,46.00
2023-04-11T18:28:43.062Z,46.20
2023-04-11T18:31:11.966Z,46.60
2023-04-11T18:33:44.127Z,47.00
2023-04-11T18:36:13.609Z,47.40
2023-04-11T18:38:42.552Z,47.50
2023-04-11T18:41:12.114Z,47.80
2023-04-11T18:43:40.754Z,47.90
2023-04-11T18:46:09.658Z,48.10
2023-04-11T18:48:38.048Z,48.30
2023-04-11T18:51:06.687Z,48.40
2023-04-11T18:53:34.956Z,48.60
2023-04-11T18:56:03.617Z,49.00
2023-04-11T18:58:34.497Z,49.00
2023-04-11T19:01:14.567Z,49.10
2023-04-11T19:03:44.386Z,49.20
2023-04-11T19:06:13.208Z,49.50
2023-04-11T19:08:41.924Z,49.80
2023-04-11T19:11:10.307Z,50.00
2023-04-11T19:13:39.946Z,50.40
2023-04-11T19:16:08.550Z,50.80
2023-04-11T19:18:36.829Z,50.80
2023-04-11T19:21:05.146Z,51.10
2023-04-11T19:23:33.344Z,51.00
2023-04-11T19:26:02.319Z,51.20
2023-04-11T19:28:30.711Z,51.50
2023-04-11T19:31:00.201Z,51.80
2023-04-11T19:33:28.354Z,52.20
2023-04-11T19:35:57.007Z,52.60
2023-04-11T19:38:25.255Z,52.90
2023-04-11T19:40:53.387Z,53.20
2023-04-11T19:43:21.978Z,53.30
2023-04-11T19:45:50.201Z,53.50
2023-04-11T19:48:19.724Z,53.50
2023-04-11T19:50:47.875Z,53.60
2023-04-11T19:53:16.273Z,53.80
2023-04-11T19:55:45.581Z,53.90
2023-04-11T19:58:13.702Z,53.90
2023-04-11T20:00:41.947Z,53.90
2023-04-11T20:03:14.596Z,54.00
2023-04-11T20:05:45.839Z,54.20
2023-04-11T20:08:14.208Z,54.30
2023-04-11T20:10:42.851Z,54.50
2023-04-11T20:13:10.947Z,54.80
2023-04-11T20:15:39.350Z,55.00
2023-04-11T20:18:07.646Z,55.30
2023-04-11T20:20:36.948Z,55.50
2023-04-11T20:23:07.122Z,55.70
2023-04-11T20:25:35.953Z,55.90
2023-04-11T20:28:04.125Z,56.00
2023-04-11T20:30:32.539Z,55.90
2023-04-11T20:33:00.681Z,56.00
2023-04-11T20:35:29.321Z,56.10
2023-04-11T20:37:57.493Z,56.20
2023-04-11T20:40:27.030Z,56.40
2023-04-11T20:42:56.388Z,56.40
2023-04-11T20:45:25.799Z,56.30
2023-04-11T20:47:55.024Z,56.40
2023-04-11T20:50:23.570Z,56.50
2023-04-11T20:52:52.784Z,56.40
2023-04-11T20:55:21.933Z,56.10
2023-04-11T20:57:51.989Z,56.00
2023-04-11T21:00:21.001Z,55.80
2023-04-11T21:02:51.668Z,55.70
2023-04-11T21:05:22.134Z,55.60
2023-04-11T21:07:50.433Z,55.40
2023-04-11T21:12:51.766Z,56.10
2023-04-11T21:15:22.541Z,56.20
2023-04-11T21:17:52.281Z,56.20
2023-04-11T21:20:21.284Z,56.30
2023-04-11T21:22:50.548Z,56.40
2023-04-11T21:25:18.723Z,56.60
2023-04-11T21:27:47.728Z,56.80
2023-04-11T21:30:16.090Z,57.00
2023-04-11T21:32:45.718Z,57.00
2023-04-11T21:35:13.966Z,57.40
2023-04-11T21:37:42.181Z,57.70
2023-04-11T21:40:11.080Z,58.00
2023-04-11T21:42:39.648Z,58.50
2023-04-11T21:45:09.454Z,59.00
2023-04-11T21:47:37.828Z,59.70
2023-04-11T21:50:08.851Z,59.90
2023-04-11T21:52:37.041Z,60.40
2023-04-11T21:55:08.156Z,60.90
2023-04-11T21:57:37.205Z,61.10
2023-04-11T22:00:06.256Z,61.50
2023-04-11T22:02:34.633Z,62.00
2023-04-11T22:05:06.882Z,62.50
2023-04-11T22:07:47.543Z,62.90
2023-04-11T22:10:23.917Z,63.30
2023-04-11T22:12:53.997Z,63.50
2023-04-11T22:15:24.152Z,63.80
2023-04-11T22:17:54.563Z,64.20
2023-04-11T22:20:23.040Z,64.50
2023-04-11T22:22:52.575Z,64.90
2023-04-11T22:25:24.918Z,65.20
2023-04-11T22:27:54.788Z,65.60
2023-04-11T22:30:24.424Z,66.00
2023-04-11T22:32:54.331Z,66.30
2023-04-11T22:35:23.291Z,66.50
2023-04-11T22:37:53.750Z,66.60
2023-04-11T22:40:23.173Z,66.80
2023-04-11T22:42:52.007Z,67.10
2023-04-11T22:45:20.973Z,67.20
2023-04-11T22:47:55.624Z,67.40
2023-04-11T22:50:24.793Z,67.40
2023-04-11T22:52:54.865Z,67.60
2023-04-11T22:55:25.132Z,67.80
2023-04-11T22:57:53.403Z,67.90
2023-04-11T23:00:22.266Z,68.30
2023-04-11T23:02:52.478Z,68.40
2023-04-11T23:05:20.843Z,68.60
2023-04-11T23:07:49.007Z,68.80
2023-04-11T23:10:19.276Z,69.10
2023-04-11T23:12:48.091Z,69.30
2023-04-11T23:15:17.443Z,69.60
2023-04-11T23:17:45.711Z,69.80
2023-04-11T23:20:14.324Z,70.20
2023-04-11T23:22:44.009Z,70.40
2023-04-11T23:25:13.403Z,70.70
2023-04-11T23:27:43.899Z,70.80
2023-04-11T23:30:15.098Z,70.90
2023-04-11T23:32:43.345Z,70.80
2023-04-11T23:35:11.855Z,70.60
2023-04-11T23:37:41.010Z,70.60
2023-04-11T23:40:14.053Z,70.60
2023-04-11T23:42:43.708Z,70.60
2023-04-11T23:45:14.313Z,70.70
2023-04-11T23:47:42.671Z,70.90
2023-04-11T23:50:12.207Z,71.10
2023-04-11T23:52:40.674Z,71.20
2023-04-11T23:55:09.769Z,71.20
2023-04-11T23:57:37.950Z,71.20
